sensor_id;sensor_type;location;lat;lon;timestamp;pressure;altitude;pressure_sealevel;temperature;humidity
50592;BME280;36548;50.506;30.834;2023-01-28T00:00:08;100524.51;;;-0.11;70.48
50592;BME280;36548;50.506;30.834;2023-01-28T00:01:19;100518.25;;;-0.05;70.08
50592;BME280;36548;50.506;30.834;2023-01-28T00:02:28;100526.92;;;0.03;69.57
50592;BME280;36548;50.506;30.834;2023-01-28T00:03:38;100529.27;;;0.20;70.25
50592;BME280;36548;50.506;30.834;2023-01-28T00:04:48;100525.48;;;0.35;69.65
50592;BME280;36548;50.506;30.834;2023-01-28T00:07:22;100515.30;;;0.62;68.92
50592;BME280;36548;50.506;30.834;2023-01-28T00:08:32;100522.46;;;0.55;69.10
50592;BME280;36548;50.506;30.834;2023-01-28T00:09:51;100515.20;;;0.66;69.42
50592;BME280;36548;50.506;30.834;2023-01-28T00:11:01;100521.56;;;0.56;69.53
50592;BME280;36548;50.506;30.834;2023-01-28T00:12:11;100516.38;;;0.50;68.64
50592;BME280;36548;50.506;30.834;2023-01-28T00:13:19;100518.70;;;0.20;66.46
50592;BME280;36548;50.506;30.834;2023-01-28T00:14:28;100517.02;;;0.16;67.89
50592;BME280;36548;50.506;30.834;2023-01-28T00:15:38;100520.54;;;0.15;69.06
50592;BME280;36548;50.506;30.834;2023-01-28T00:16:53;100512.53;;;0.21;69.20
50592;BME280;36548;50.506;30.834;2023-01-28T00:18:02;100525.88;;;0.12;69.98
50592;BME280;36548;50.506;30.834;2023-01-28T00:19:13;100516.33;;;0.05;68.62
50592;BME280;36548;50.506;30.834;2023-01-28T00:20:21;100519.95;;;-0.01;68.88
50592;BME280;36548;50.506;30.834;2023-01-28T00:21:31;100522.73;;;-0.10;68.54
50592;BME280;36548;50.506;30.834;2023-01-28T00:22:46;100530.70;;;-0.13;69.19
50592;BME280;36548;50.506;30.834;2023-01-28T00:23:56;100524.59;;;-0.17;69.41
50592;BME280;36548;50.506;30.834;2023-01-28T00:25:06;100528.73;;;-0.60;69.18
50592;BME280;36548;50.506;30.834;2023-01-28T00:26:16;100533.44;;;-0.80;70.24
50592;BME280;36548;50.506;30.834;2023-01-28T00:27:42;100531.80;;;-0.91;70.74
50592;BME280;36548;50.506;30.834;2023-01-28T00:28:53;100526.34;;;-1.48;72.45
50592;BME280;36548;50.506;30.834;2023-01-28T00:30:04;100533.42;;;-1.55;73.28
50592;BME280;36548;50.506;30.834;2023-01-28T00:31:18;100530.75;;;-1.52;73.85
50592;BME280;36548;50.506;30.834;2023-01-28T00:32:28;100530.83;;;-1.58;74.00
50592;BME280;36548;50.506;30.834;2023-01-28T00:33:37;100528.04;;;-1.46;74.07
50592;BME280;36548;50.506;30.834;2023-01-28T00:34:46;100532.94;;;-1.12;74.26
50592;BME280;36548;50.506;30.834;2023-01-28T00:36:02;100526.52;;;-0.91;73.93
50592;BME280;36548;50.506;30.834;2023-01-28T00:37:12;100515.82;;;-0.78;72.45
50592;BME280;36548;50.506;30.834;2023-01-28T00:38:22;100526.22;;;-0.67;71.60
50592;BME280;36548;50.506;30.834;2023-01-28T00:39:32;100519.84;;;-0.51;71.52
50592;BME280;36548;50.506;30.834;2023-01-28T00:40:42;100517.00;;;-0.37;71.19
50592;BME280;36548;50.506;30.834;2023-01-28T00:41:58;100514.70;;;-0.03;71.64
50592;BME280;36548;50.506;30.834;2023-01-28T00:43:07;100514.58;;;0.04;71.38
50592;BME280;36548;50.506;30.834;2023-01-28T00:44:15;100517.81;;;0.21;70.83
50592;BME280;36548;50.506;30.834;2023-01-28T00:45:25;100515.50;;;0.01;67.96
50592;BME280;36548;50.506;30.834;2023-01-28T00:46:36;100514.46;;;0.11;67.93
50592;BME280;36548;50.506;30.834;2023-01-28T00:47:44;100508.81;;;0.31;69.08
50592;BME280;36548;50.506;30.834;2023-01-28T00:48:55;100519.19;;;0.42;69.12
50592;BME280;36548;50.506;30.834;2023-01-28T00:50:05;100514.86;;;0.38;69.03
50592;BME280;36548;50.506;30.834;2023-01-28T00:51:16;100515.78;;;0.36;69.18
50592;BME280;36548;50.506;30.834;2023-01-28T00:52:25;100511.48;;;0.30;69.37
50592;BME280;36548;50.506;30.834;2023-01-28T00:53:36;100518.80;;;0.15;67.97
50592;BME280;36548;50.506;30.834;2023-01-28T00:54:46;100512.80;;;0.04;68.00
50592;BME280;36548;50.506;30.834;2023-01-28T00:55:56;100510.28;;;-0.02;68.79
50592;BME280;36548;50.506;30.834;2023-01-28T00:57:11;100508.53;;;-0.03;68.56
50592;BME280;36548;50.506;30.834;2023-01-28T00:58:21;100523.70;;;-0.16;69.18
50592;BME280;36548;50.506;30.834;2023-01-28T00:59:31;100527.41;;;-0.29;68.66
50592;BME280;36548;50.506;30.834;2023-01-28T01:00:40;100520.41;;;-0.32;69.34
50592;BME280;36548;50.506;30.834;2023-01-28T01:01:50;100521.30;;;-0.31;69.92
50592;BME280;36548;50.506;30.834;2023-01-28T01:03:01;100521.34;;;-0.33;69.90
50592;BME280;36548;50.506;30.834;2023-01-28T01:04:10;100526.64;;;-0.35;69.65
50592;BME280;36548;50.506;30.834;2023-01-28T01:05:20;100521.38;;;-0.38;69.31
50592;BME280;36548;50.506;30.834;2023-01-28T01:06:32;100525.02;;;-0.45;69.44
50592;BME280;36548;50.506;30.834;2023-01-28T01:07:43;100524.28;;;-0.55;69.16
50592;BME280;36548;50.506;30.834;2023-01-28T01:08:52;100524.33;;;-0.58;69.53
50592;BME280;36548;50.506;30.834;2023-01-28T01:10:09;100518.19;;;-0.60;69.63
50592;BME280;36548;50.506;30.834;2023-01-28T01:11:19;100531.45;;;-0.64;69.56
50592;BME280;36548;50.506;30.834;2023-01-28T01:12:30;100521.03;;;-0.72;69.57
50592;BME280;36548;50.506;30.834;2023-01-28T01:13:39;100522.88;;;-0.79;69.56
50592;BME280;36548;50.506;30.834;2023-01-28T01:14:49;100515.89;;;-0.83;70.08
50592;BME280;36548;50.506;30.834;2023-01-28T01:16:03;100514.14;;;-0.84;70.57
50592;BME280;36548;50.506;30.834;2023-01-28T01:17:12;100514.14;;;-0.84;70.92
50592;BME280;36548;50.506;30.834;2023-01-28T01:18:21;100506.23;;;-0.84;70.41
50592;BME280;36548;50.506;30.834;2023-01-28T01:19:31;100505.30;;;-0.80;70.17
50592;BME280;36548;50.506;30.834;2023-01-28T01:20:40;100502.58;;;-0.72;70.06
50592;BME280;36548;50.506;30.834;2023-01-28T01:21:57;100501.33;;;-0.48;70.16
50592;BME280;36548;50.506;30.834;2023-01-28T01:23:06;100499.02;;;-0.71;68.92
50592;BME280;36548;50.506;30.834;2023-01-28T01:24:16;100496.28;;;-0.63;68.95
50592;BME280;36548;50.506;30.834;2023-01-28T01:25:26;100502.24;;;-0.50;69.24
50592;BME280;36548;50.506;30.834;2023-01-28T01:26:35;100501.14;;;-0.36;70.20
50592;BME280;36548;50.506;30.834;2023-01-28T01:27:49;100493.34;;;-0.43;69.05
50592;BME280;36548;50.506;30.834;2023-01-28T01:28:59;100504.82;;;-1.11;70.54
50592;BME280;36548;50.506;30.834;2023-01-28T01:30:10;100501.24;;;-1.04;71.56
50592;BME280;36548;50.506;30.834;2023-01-28T01:31:21;100501.80;;;-0.82;71.94
50592;BME280;36548;50.506;30.834;2023-01-28T01:32:31;100501.73;;;-0.76;71.64
50592;BME280;36548;50.506;30.834;2023-01-28T01:33:45;100505.01;;;-0.60;72.21
50592;BME280;36548;50.506;30.834;2023-01-28T01:34:55;100502.16;;;-0.46;71.49
50592;BME280;36548;50.506;30.834;2023-01-28T01:36:07;100509.86;;;-0.32;70.64
50592;BME280;36548;50.506;30.834;2023-01-28T01:37:16;100510.62;;;-0.22;69.57
50592;BME280;36548;50.506;30.834;2023-01-28T01:38:26;100502.56;;;-0.14;68.98
50592;BME280;36548;50.506;30.834;2023-01-28T01:39:35;100500.70;;;-0.08;68.18
50592;BME280;36548;50.506;30.834;2023-01-28T01:40:45;100511.04;;;-0.52;67.28
50592;BME280;36548;50.506;30.834;2023-01-28T01:41:58;100510.23;;;-0.55;67.69
50592;BME280;36548;50.506;30.834;2023-01-28T01:45:05;100497.30;;;-0.72;69.72
50592;BME280;36548;50.506;30.834;2023-01-28T01:47:46;100502.91;;;-0.97;70.72
50592;BME280;36548;50.506;30.834;2023-01-28T01:48:59;100499.64;;;-1.17;71.02
50592;BME280;36548;50.506;30.834;2023-01-28T01:51:29;100506.80;;;-1.29;72.01
50592;BME280;36548;50.506;30.834;2023-01-28T01:52:48;100496.08;;;-1.13;71.93
50592;BME280;36548;50.506;30.834;2023-01-28T01:53:59;100497.83;;;-1.14;72.04
50592;BME280;36548;50.506;30.834;2023-01-28T05:51:12;100528.42;;;-3.18;83.20
50592;BME280;36548;50.506;30.834;2023-01-28T05:52:28;100521.36;;;-3.05;82.90
50592;BME280;36548;50.506;30.834;2023-01-28T05:53:41;100535.48;;;-3.37;81.74
50592;BME280;36548;50.506;30.834;2023-01-28T05:54:51;100531.04;;;-3.21;82.16
50592;BME280;36548;50.506;30.834;2023-01-28T05:56:00;100526.63;;;-3.13;81.34
50592;BME280;36548;50.506;30.834;2023-01-28T05:57:13;100529.19;;;-2.93;81.50
50592;BME280;36548;50.506;30.834;2023-01-28T05:58:22;100529.92;;;-2.67;81.79
50592;BME280;36548;50.506;30.834;2023-01-28T05:59:33;100531.53;;;-2.45;80.69
50592;BME280;36548;50.506;30.834;2023-01-28T06:00:43;100529.67;;;-2.27;79.24
50592;BME280;36548;50.506;30.834;2023-01-28T06:01:52;100530.41;;;-2.08;78.60
50592;BME280;36548;50.506;30.834;2023-01-28T06:03:02;100524.19;;;-1.99;76.55
50592;BME280;36548;50.506;30.834;2023-01-28T06:04:18;100521.36;;;-1.76;75.39
50592;BME280;36548;50.506;30.834;2023-01-28T06:05:27;100524.79;;;-1.71;75.68
50592;BME280;36548;50.506;30.834;2023-01-28T06:06:37;100514.11;;;-1.54;75.68
50592;BME280;36548;50.506;30.834;2023-01-28T06:07:53;100519.91;;;-1.24;74.96
50592;BME280;36548;50.506;30.834;2023-01-28T06:09:03;100524.30;;;-1.23;74.33
50592;BME280;36548;50.506;30.834;2023-01-28T06:10:14;100527.60;;;-1.07;74.27
50592;BME280;36548;50.506;30.834;2023-01-28T06:11:32;100515.80;;;-0.77;73.96
50592;BME280;36548;50.506;30.834;2023-01-28T06:12:43;100533.44;;;-0.80;72.23
50592;BME280;36548;50.506;30.834;2023-01-28T06:14:00;100521.78;;;-0.65;73.02
50592;BME280;36548;50.506;30.834;2023-01-28T06:15:16;100519.66;;;-0.39;72.18
50592;BME280;36548;50.506;30.834;2023-01-28T06:16:28;100534.83;;;-0.55;69.49
50592;BME280;36548;50.506;30.834;2023-01-28T06:17:46;100522.30;;;-0.39;70.79
50592;BME280;36548;50.506;30.834;2023-01-28T06:18:57;100520.39;;;-0.29;71.32
50592;BME280;36548;50.506;30.834;2023-01-28T06:20:07;100524.75;;;-0.26;71.23
50592;BME280;36548;50.506;30.834;2023-01-28T06:21:19;100525.24;;;-0.60;68.29
50592;BME280;36548;50.506;30.834;2023-01-28T06:22:28;100534.75;;;-0.48;70.41
50592;BME280;36548;50.506;30.834;2023-01-28T06:23:37;100526.79;;;-0.45;70.59
50592;BME280;36548;50.506;30.834;2023-01-28T06:24:48;100535.64;;;-0.49;70.54
50592;BME280;36548;50.506;30.834;2023-01-28T06:25:58;100527.81;;;-1.24;67.83
50592;BME280;36548;50.506;30.834;2023-01-28T06:27:08;100527.26;;;-1.52;68.60
50592;BME280;36548;50.506;30.834;2023-01-28T06:28:17;100546.36;;;-1.32;69.87
50592;BME280;36548;50.506;30.834;2023-01-28T06:29:26;100536.04;;;-1.53;69.37
50592;BME280;36548;50.506;30.834;2023-01-28T06:30:35;100533.30;;;-1.43;70.41
50592;BME280;36548;50.506;30.834;2023-01-28T06:31:44;100542.28;;;-1.65;70.93
50592;BME280;36548;50.506;30.834;2023-01-28T06:32:54;100543.55;;;-2.11;72.30
50592;BME280;36548;50.506;30.834;2023-01-28T06:34:04;100536.30;;;-1.81;72.85
50592;BME280;36548;50.506;30.834;2023-01-28T06:35:14;100527.50;;;-1.77;72.40
50592;BME280;36548;50.506;30.834;2023-01-28T06:36:29;100517.55;;;-1.49;72.69
50592;BME280;36548;50.506;30.834;2023-01-28T06:37:38;100527.20;;;-1.48;72.75
50592;BME280;36548;50.506;30.834;2023-01-28T06:38:49;100527.91;;;-1.33;72.17
50592;BME280;36548;50.506;30.834;2023-01-28T06:39:58;100528.02;;;-1.41;70.40
50592;BME280;36548;50.506;30.834;2023-01-28T06:41:07;100530.17;;;-1.83;70.48
50592;BME280;36548;50.506;30.834;2023-01-28T06:42:17;100544.77;;;-1.51;71.03
50592;BME280;36548;50.506;30.834;2023-01-28T06:43:32;100529.74;;;-1.39;70.98
50592;BME280;36548;50.506;30.834;2023-01-28T06:44:40;100534.09;;;-1.38;70.38
50592;BME280;36548;50.506;30.834;2023-01-28T06:45:49;100536.09;;;-1.58;70.62
50592;BME280;36548;50.506;30.834;2023-01-28T06:46:58;100550.91;;;-1.49;70.60
50592;BME280;36548;50.506;30.834;2023-01-28T06:48:07;100547.11;;;-1.24;71.13
50592;BME280;36548;50.506;30.834;2023-01-28T06:49:16;100544.30;;;-1.07;71.19
50592;BME280;36548;50.506;30.834;2023-01-28T06:50:28;100546.73;;;-0.90;71.20
50592;BME280;36548;50.506;30.834;2023-01-28T06:51:37;100541.27;;;-0.76;71.06
50592;BME280;36548;50.506;30.834;2023-01-28T06:52:52;100531.17;;;-0.46;70.86
50592;BME280;36548;50.506;30.834;2023-01-28T06:54:01;100532.41;;;-0.70;67.74
50592;BME280;36548;50.506;30.834;2023-01-28T06:55:11;100538.66;;;-0.77;67.61
50592;BME280;36548;50.506;30.834;2023-01-28T06:56:20;100529.77;;;-0.70;67.53
50592;BME280;36548;50.506;30.834;2023-01-28T06:57:29;100528.00;;;-0.70;67.75
50592;BME280;36548;50.506;30.834;2023-01-28T06:58:40;100522.66;;;-0.63;69.27
50592;BME280;36548;50.506;30.834;2023-01-28T06:59:49;100526.20;;;-0.66;69.98
50592;BME280;36548;50.506;30.834;2023-01-28T07:00:58;100521.86;;;-0.70;69.70
50592;BME280;36548;50.506;30.834;2023-01-28T07:02:10;100522.77;;;-0.73;70.33
50592;BME280;36548;50.506;30.834;2023-01-28T07:03:20;100529.86;;;-0.78;69.80
50592;BME280;36548;50.506;30.834;2023-01-28T07:04:30;100533.61;;;-0.96;68.66
50592;BME280;36548;50.506;30.834;2023-01-28T07:05:39;100535.48;;;-1.06;69.05
50592;BME280;36548;50.506;30.834;2023-01-28T07:06:48;100533.62;;;-0.97;70.00
50592;BME280;36548;50.506;30.834;2023-01-28T07:07:57;100543.28;;;-0.96;69.97
50592;BME280;36548;50.506;30.834;2023-01-28T07:09:08;100535.38;;;-0.96;70.18
50592;BME280;36548;50.506;30.834;2023-01-28T07:10:17;100538.92;;;-0.99;69.93
50592;BME280;36548;50.506;30.834;2023-01-28T07:11:26;100535.58;;;-1.12;68.44
50592;BME280;36548;50.506;30.834;2023-01-28T07:12:35;100545.37;;;-1.23;68.37
50592;BME280;36548;50.506;30.834;2023-01-28T07:13:45;100545.37;;;-1.23;69.22
50592;BME280;36548;50.506;30.834;2023-01-28T07:14:55;100538.28;;;-1.20;69.88
50592;BME280;36548;50.506;30.834;2023-01-28T07:16:04;100557.73;;;-1.30;69.17
50592;BME280;36548;50.506;30.834;2023-01-28T07:17:14;100546.38;;;-1.37;69.47
50592;BME280;36548;50.506;30.834;2023-01-28T07:18:24;100542.01;;;-1.36;70.28
50592;BME280;36548;50.506;30.834;2023-01-28T07:19:34;100548.20;;;-1.43;69.77
50592;BME280;36548;50.506;30.834;2023-01-28T07:20:43;100546.51;;;-1.49;69.75
50592;BME280;36548;50.506;30.834;2023-01-28T07:21:53;100547.34;;;-1.44;70.69
50592;BME280;36548;50.506;30.834;2023-01-28T07:23:04;100547.23;;;-1.33;71.40
50592;BME280;36548;50.506;30.834;2023-01-28T07:24:12;100544.58;;;-1.31;70.69
50592;BME280;36548;50.506;30.834;2023-01-28T07:25:21;100545.52;;;-1.37;69.56
50592;BME280;36548;50.506;30.834;2023-01-28T07:26:31;100546.41;;;-1.38;69.58
50592;BME280;36548;50.506;30.834;2023-01-28T07:27:51;100541.84;;;-1.21;70.07
50592;BME280;36548;50.506;30.834;2023-01-28T07:29:01;100533.00;;;-1.16;69.69
50592;BME280;36548;50.506;30.834;2023-01-28T07:30:10;100530.28;;;-1.10;70.26
50592;BME280;36548;50.506;30.834;2023-01-28T07:31:20;100528.45;;;-1.04;70.71
50592;BME280;36548;50.506;30.834;2023-01-28T07:32:30;100530.14;;;-0.98;70.22
50592;BME280;36548;50.506;30.834;2023-01-28T07:33:39;100523.95;;;-0.95;69.36
50592;BME280;36548;50.506;30.834;2023-01-28T07:34:48;100524.73;;;-0.87;69.12
50592;BME280;36548;50.506;30.834;2023-01-28T07:35:58;100524.61;;;-0.79;68.58
50592;BME280;36548;50.506;30.834;2023-01-28T07:37:06;100520.95;;;-0.67;68.89
50592;BME280;36548;50.506;30.834;2023-01-28T07:38:15;100520.19;;;-0.76;67.80
50592;BME280;36548;50.506;30.834;2023-01-28T07:39:24;100520.39;;;-0.91;67.39
50592;BME280;36548;50.506;30.834;2023-01-28T07:40:33;100523.14;;;-1.00;67.56
50592;BME280;36548;50.506;30.834;2023-01-28T07:41:43;100526.64;;;-0.98;68.82
50592;BME280;36548;50.506;30.834;2023-01-28T07:42:58;100515.08;;;-0.88;69.52
50592;BME280;36548;50.506;30.834;2023-01-28T07:44:08;100521.38;;;-0.98;69.65
50592;BME280;36548;50.506;30.834;2023-01-28T07:45:17;100519.06;;;-1.28;68.40
50592;BME280;36548;50.506;30.834;2023-01-28T07:46:27;100517.28;;;-1.24;69.32
50592;BME280;36548;50.506;30.834;2023-01-28T07:47:36;100520.77;;;-1.21;70.23
50592;BME280;36548;50.506;30.834;2023-01-28T07:48:45;100518.11;;;-1.19;70.06
50592;BME280;36548;50.506;30.834;2023-01-28T07:49:54;100515.49;;;-1.21;70.29
50592;BME280;36548;50.506;30.834;2023-01-28T07:51:04;100521.58;;;-1.17;70.34
50592;BME280;36548;50.506;30.834;2023-01-28T07:52:14;100527.67;;;-1.12;69.45
50592;BME280;36548;50.506;30.834;2023-01-28T07:53:23;100539.13;;;-1.16;68.29
50592;BME280;36548;50.506;30.834;2023-01-28T07:54:39;100528.28;;;-0.90;68.64
50592;BME280;36548;50.506;30.834;2023-01-28T07:55:47;100528.36;;;-0.97;68.70
50592;BME280;36548;50.506;30.834;2023-01-28T07:56:57;100537.95;;;-0.92;69.10
50592;BME280;36548;50.506;30.834;2023-01-28T07:58:07;100534.43;;;-0.91;69.53
50592;BME280;36548;50.506;30.834;2023-01-28T07:59:24;100540.42;;;-0.79;69.85
50592;BME280;36548;50.506;30.834;2023-01-28T08:00:34;100543.22;;;-0.92;69.35
50592;BME280;36548;50.506;30.834;2023-01-28T08:01:44;100543.22;;;-0.92;69.45
50592;BME280;36548;50.506;30.834;2023-01-28T08:02:58;100541.48;;;-0.91;69.46
50592;BME280;36548;50.506;30.834;2023-01-28T08:04:14;100549.24;;;-0.82;69.15
50592;BME280;36548;50.506;30.834;2023-01-28T08:05:24;100543.28;;;-0.96;68.85
50592;BME280;36548;50.506;30.834;2023-01-28T08:06:40;100548.38;;;-0.82;69.61
50592;BME280;36548;50.506;30.834;2023-01-28T08:07:50;100538.21;;;-1.12;68.69
50592;BME280;36548;50.506;30.834;2023-01-28T08:09:00;100553.38;;;-1.34;68.26
50592;BME280;36548;50.506;30.834;2023-01-28T08:10:11;100554.30;;;-1.38;69.00
50592;BME280;36548;50.506;30.834;2023-01-28T08:11:26;100541.09;;;-1.32;69.54
50592;BME280;36548;50.506;30.834;2023-01-28T08:12:35;100549.08;;;-1.41;70.20
50592;BME280;36548;50.506;30.834;2023-01-28T08:13:43;100550.03;;;-1.48;69.56
50592;BME280;36548;50.506;30.834;2023-01-28T08:14:52;100549.46;;;-1.81;69.94
50592;BME280;36548;50.506;30.834;2023-01-28T08:16:04;100540.69;;;-1.83;70.48
50592;BME280;36548;50.506;30.834;2023-01-28T08:17:14;100545.84;;;-1.71;71.27
50592;BME280;36548;50.506;30.834;2023-01-28T08:18:23;100554.70;;;-1.80;70.50
50592;BME280;36548;50.506;30.834;2023-01-28T08:19:32;100550.45;;;-1.96;71.34
50592;BME280;36548;50.506;30.834;2023-01-28T08:20:42;100564.39;;;-1.82;71.40
50592;BME280;36548;50.506;30.834;2023-01-28T08:21:59;100544.77;;;-1.51;71.11
50592;BME280;36548;50.506;30.834;2023-01-28T08:23:15;100549.12;;;-1.44;71.24
50592;BME280;36548;50.506;30.834;2023-01-28T08:24:24;100553.52;;;-1.46;69.36
50592;BME280;36548;50.506;30.834;2023-01-28T08:25:34;100546.17;;;-1.16;70.09
50592;BME280;36548;50.506;30.834;2023-01-28T08:26:43;100549.43;;;-0.94;70.16
50592;BME280;36548;50.506;30.834;2023-01-28T08:27:54;100537.77;;;-0.78;69.63
50592;BME280;36548;50.506;30.834;2023-01-28T08:29:02;100542.86;;;-0.64;69.82
50592;BME280;36548;50.506;30.834;2023-01-28T08:30:14;100542.64;;;-0.47;69.68
50592;BME280;36548;50.506;30.834;2023-01-28T08:31:26;100535.47;;;-0.37;68.50
50592;BME280;36548;50.506;30.834;2023-01-28T08:32:36;100540.63;;;-0.31;68.57
50592;BME280;36548;50.506;30.834;2023-01-28T08:33:45;100540.71;;;-0.36;67.26
50592;BME280;36548;50.506;30.834;2023-01-28T08:34:53;100542.69;;;-0.50;66.29
50592;BME280;36548;50.506;30.834;2023-01-28T08:36:09;100540.12;;;-0.56;66.44
50592;BME280;36548;50.506;30.834;2023-01-28T08:37:18;100539.52;;;-0.77;66.57
50592;BME280;36548;50.506;30.834;2023-01-28T08:38:27;100541.61;;;-1.02;67.13
50592;BME280;36548;50.506;30.834;2023-01-28T08:39:36;100539.98;;;-1.12;67.77
50592;BME280;36548;50.506;30.834;2023-01-28T08:40:46;100539.11;;;-1.14;68.55
50592;BME280;36548;50.506;30.834;2023-01-28T08:41:56;100530.55;;;-1.33;68.69
50592;BME280;36548;50.506;30.834;2023-01-28T08:43:11;100538.52;;;-1.40;69.11
50592;BME280;36548;50.506;30.834;2023-01-28T08:44:21;100530.83;;;-1.58;69.57
50592;BME280;36548;50.506;30.834;2023-01-28T08:45:29;100529.99;;;-1.63;69.83
50592;BME280;36548;50.506;30.834;2023-01-28T08:46:39;100529.91;;;-1.54;70.61
50592;BME280;36548;50.506;30.834;2023-01-28T08:47:54;100522.81;;;-1.49;70.80
50592;BME280;36548;50.506;30.834;2023-01-28T08:49:04;100531.56;;;-1.45;70.67
50592;BME280;36548;50.506;30.834;2023-01-28T08:50:14;100525.41;;;-1.46;69.94
50592;BME280;36548;50.506;30.834;2023-01-28T08:51:24;100530.56;;;-1.35;69.91
50592;BME280;36548;50.506;30.834;2023-01-28T08:52:34;100523.64;;;-1.44;69.38
50592;BME280;36548;50.506;30.834;2023-01-28T08:53:43;100530.69;;;-1.44;69.05
50592;BME280;36548;50.506;30.834;2023-01-28T08:54:59;100525.34;;;-1.38;68.97
50592;BME280;36548;50.506;30.834;2023-01-28T08:56:08;100519.98;;;-1.29;69.57
50592;BME280;36548;50.506;30.834;2023-01-28T08:57:17;100513.80;;;-1.28;69.29
50592;BME280;36548;50.506;30.834;2023-01-28T08:58:26;100518.30;;;-1.38;68.83
50592;BME280;36548;50.506;30.834;2023-01-28T08:59:36;100514.67;;;-1.26;69.79
50592;BME280;36548;50.506;30.834;2023-01-28T09:00:47;100511.20;;;-1.31;69.09
50592;BME280;36548;50.506;30.834;2023-01-28T09:01:57;100513.80;;;-1.26;69.05
50592;BME280;36548;50.506;30.834;2023-01-28T09:03:06;100506.64;;;-1.15;70.04
50592;BME280;36548;50.506;30.834;2023-01-28T09:04:15;100497.73;;;-1.06;70.27
50592;BME280;36548;50.506;30.834;2023-01-28T09:05:24;100502.96;;;-1.03;69.18
50592;BME280;36548;50.506;30.834;2023-01-28T09:06:33;100502.00;;;-0.94;69.50
50592;BME280;36548;50.506;30.834;2023-01-28T09:07:48;100491.06;;;-0.66;69.58
50592;BME280;36548;50.506;30.834;2023-01-28T09:08:59;100501.63;;;-0.70;67.91
50592;BME280;36548;50.506;30.834;2023-01-28T09:10:09;100505.08;;;-0.64;67.50
50592;BME280;36548;50.506;30.834;2023-01-28T09:11:18;100491.83;;;-0.58;68.16
50592;BME280;36548;50.506;30.834;2023-01-28T09:12:27;100489.09;;;-0.52;68.46
50592;BME280;36548;50.506;30.834;2023-01-28T09:13:36;100496.91;;;-0.47;68.11
50592;BME280;36548;50.506;30.834;2023-01-28T09:14:45;100492.50;;;-0.45;67.73
50592;BME280;36548;50.506;30.834;2023-01-28T09:15:54;100489.00;;;-0.47;66.95
50592;BME280;36548;50.506;30.834;2023-01-28T09:17:04;100492.69;;;-0.58;65.99
50592;BME280;36548;50.506;30.834;2023-01-28T09:18:13;100484.86;;;-0.62;66.23
50592;BME280;36548;50.506;30.834;2023-01-28T09:19:22;100487.44;;;-0.59;66.95
50592;BME280;36548;50.506;30.834;2023-01-28T09:20:31;100485.06;;;-0.76;66.33
50592;BME280;36548;50.506;30.834;2023-01-28T09:21:40;100478.89;;;-0.77;66.81
50592;BME280;36548;50.506;30.834;2023-01-28T09:22:50;100485.01;;;-0.73;67.33
50592;BME280;36548;50.506;30.834;2023-01-28T09:23:59;100483.30;;;-0.77;66.76
50592;BME280;36548;50.506;30.834;2023-01-28T09:25:08;100482.44;;;-0.79;66.75
50592;BME280;36548;50.506;30.834;2023-01-28T09:26:17;100485.89;;;-0.74;67.36
50592;BME280;36548;50.506;30.834;2023-01-28T09:27:27;100482.30;;;-0.69;67.62
50592;BME280;36548;50.506;30.834;2023-01-28T09:28:37;100478.37;;;-1.02;66.63
50592;BME280;36548;50.506;30.834;2023-01-28T09:29:47;100474.03;;;-1.06;66.94
50592;BME280;36548;50.506;30.834;2023-01-28T09:31:04;100477.53;;;-1.04;67.73
50592;BME280;36548;50.506;30.834;2023-01-28T09:32:20;100473.94;;;-0.98;67.21
50592;BME280;36548;50.506;30.834;2023-01-28T09:33:29;100475.33;;;-1.40;67.38
50592;BME280;36548;50.506;30.834;2023-01-28T09:34:38;100471.50;;;-1.15;68.44
50592;BME280;36548;50.506;30.834;2023-01-28T09:35:49;100468.78;;;-1.08;68.33
50592;BME280;36548;50.506;30.834;2023-01-28T09:36:58;100468.78;;;-1.08;67.81
50592;BME280;36548;50.506;30.834;2023-01-28T09:38:08;100478.48;;;-1.11;67.48
50592;BME280;36548;50.506;30.834;2023-01-28T09:39:18;100476.59;;;-1.01;68.38
50592;BME280;36548;50.506;30.834;2023-01-28T09:40:33;100468.70;;;-1.00;67.23
50592;BME280;36548;50.506;30.834;2023-01-28T09:46:30;100461.16;;;-1.31;67.67
50592;BME280;36548;50.506;30.834;2023-01-28T09:47:51;100455.86;;;-1.26;67.37
50592;BME280;36548;50.506;30.834;2023-01-28T09:49:05;100469.00;;;-1.25;68.10
50592;BME280;36548;50.506;30.834;2023-01-28T14:16:05;100298.50;;;0.70;56.42
50592;BME280;36548;50.506;30.834;2023-01-28T14:17:21;100304.72;;;0.67;56.55
50592;BME280;36548;50.506;30.834;2023-01-28T14:18:42;100306.20;;;0.79;55.69
50592;BME280;36548;50.506;30.834;2023-01-28T14:19:52;100307.12;;;0.78;56.27
50592;BME280;36548;50.506;30.834;2023-01-28T14:21:10;100310.74;;;0.74;55.23
50592;BME280;36548;50.506;30.834;2023-01-28T14:22:25;100313.62;;;1.00;55.46
50592;BME280;36548;50.506;30.834;2023-01-28T14:23:35;100298.79;;;0.95;55.35
50592;BME280;36548;50.506;30.834;2023-01-28T14:24:46;100315.21;;;1.08;55.91
50592;BME280;36548;50.506;30.834;2023-01-28T14:26:15;100307.28;;;1.08;54.65
50592;BME280;36548;50.506;30.834;2023-01-28T14:27:36;100305.41;;;1.13;55.00
50592;BME280;36548;50.506;30.834;2023-01-28T14:28:58;100305.41;;;1.13;54.67
50592;BME280;36548;50.506;30.834;2023-01-28T14:30:12;100308.77;;;1.18;54.74
50592;BME280;36548;50.506;30.834;2023-01-28T14:31:32;100307.15;;;1.14;54.54
50592;BME280;36548;50.506;30.834;2023-01-28T14:32:47;100306.25;;;1.13;54.67
50592;BME280;36548;50.506;30.834;2023-01-28T14:35:18;100292.59;;;1.32;54.40
50592;BME280;36548;50.506;30.834;2023-01-28T14:36:29;100304.25;;;1.23;54.61
50592;BME280;36548;50.506;30.834;2023-01-28T14:37:39;100312.14;;;1.25;54.76
50592;BME280;36548;50.506;30.834;2023-01-28T14:38:49;100313.80;;;1.29;54.75
50592;BME280;36548;50.506;30.834;2023-01-28T14:40:03;100303.18;;;1.30;54.54